Time;durP1;ratioP1;P1;durP2;ratioP2;P2;SDS_P1;SDS_P2;PMS_P1;PMS_P2;Temp;Humidity;BMP_temperature;BMP_pressure;BME280_temperature;BME280_humidity;BME280_pressure;Samples;Min_cycle;Max_cycle;Signal;HPM_P1;HPM_P2
2022/05/27 00:00:41;;;;;;;3.90;2.03;;;20.00;56.50;;;;;;5090204;28;20062;-72
2022/05/27 00:03:07;;;;;;;4.53;2.10;;;19.90;59.60;;;;;;5105019;28;20116;-72
2022/05/27 00:05:34;;;;;;;3.17;1.65;;;20.00;56.50;;;;;;5090150;28;20070;-72
2022/05/27 00:08:01;;;;;;;3.47;1.77;;;20.00;61.00;;;;;;5090320;28;20153;-72
2022/05/27 00:10:27;;;;;;;5.50;2.03;;;19.90;56.50;;;;;;5088856;28;20044;-72
2022/05/27 00:12:54;;;;;;;3.83;1.70;;;20.10;60.30;;;;;;5088196;28;20058;-73
2022/05/27 00:15:21;;;;;;;2.65;1.65;;;19.90;56.50;;;;;;5088378;28;20460;-73
2022/05/27 00:17:49;;;;;;;2.53;1.48;;;19.90;56.50;;;;;;5089840;28;20498;-73
2022/05/27 00:20:16;;;;;;;2.78;1.50;;;19.90;56.60;;;;;;5088564;28;20054;-72
2022/05/27 00:22:42;;;;;;;3.08;1.67;;;19.90;56.60;;;;;;5089161;28;20082;-73
2022/05/27 00:25:10;;;;;;;2.78;1.45;;;19.90;56.60;;;;;;5087818;28;20058;-72
2022/05/27 00:27:37;;;;;;;3.85;1.63;;;19.90;56.60;;;;;;5088486;28;20535;-72
2022/05/27 00:30:04;;;;;;;2.88;1.60;;;19.90;56.60;;;;;;5107384;28;20051;-72
2022/05/27 00:32:31;;;;;;;4.32;1.40;;;19.90;56.60;;;;;;5108877;28;20056;-71
2022/05/27 00:34:59;;;;;;;3.17;1.90;;;19.90;56.60;;;;;;5108456;28;20051;-72
2022/05/27 00:37:26;;;;;;;2.80;1.77;;;21.40;57.50;;;;;;5109007;28;20039;-72
2022/05/27 00:39:52;;;;;;;4.20;1.65;;;20.00;60.00;;;;;;5088105;28;20054;-72
2022/05/27 00:42:19;;;;;;;2.10;1.50;;;21.00;61.00;;;;;;5089509;28;20058;-72
2022/05/27 00:44:46;;;;;;;3.33;1.52;;;19.40;60.20;;;;;;5087903;28;20052;-72
2022/05/27 00:47:13;;;;;;;3.78;1.65;;;19.80;60.70;;;;;;5088387;28;20389;-72
2022/05/27 00:49:44;;;;;;;3.92;1.55;;;20.00;60.80;;;;;;5087926;28;20134;-72
2022/05/27 00:52:13;;;;;;;2.60;1.45;;;19.80;56.60;;;;;;5088330;28;20048;-72
2022/05/27 00:54:40;;;;;;;3.28;1.60;;;19.80;56.60;;;;;;5089073;28;20387;-72
2022/05/27 00:57:09;;;;;;;3.10;1.63;;;19.80;56.70;;;;;;5088020;28;20142;-72
2022/05/27 00:59:38;;;;;;;3.33;1.60;;;19.90;61.10;;;;;;5088758;28;20046;-73
2022/05/27 01:02:04;;;;;;;3.30;1.80;;;19.80;56.70;;;;;;5095056;28;20067;-72
2022/05/27 01:04:31;;;;;;;3.50;1.50;;;19.80;56.70;;;;;;5109144;28;20405;-73
2022/05/27 01:06:58;;;;;;;4.60;1.58;;;19.80;61.20;;;;;;5109275;28;20043;-72
2022/05/27 01:09:26;;;;;;;3.65;1.75;;;19.80;56.80;;;;;;5107410;28;20053;-72
2022/05/27 01:12:21;;;;;;;3.72;1.90;;;19.80;56.70;;;;;;5107457;28;20071;-72
2022/05/27 01:15:08;;;;;;;3.38;1.60;;;19.80;56.10;;;;;;5085018;28;20058;-73
2022/05/27 01:17:41;;;;;;;3.90;1.60;;;19.80;56.80;;;;;;5087709;28;20056;-72
2022/05/27 01:20:19;;;;;;;5.20;1.80;;;19.70;60.10;;;;;;5087440;28;20048;-72
2022/05/27 01:22:55;;;;;;;2.85;1.65;;;19.80;56.80;;;;;;5087620;28;20383;-72
2022/05/27 01:25:43;;;;;;;2.95;1.70;;;19.60;60.60;;;;;;5088681;28;20047;-72
2022/05/27 01:28:34;;;;;;;2.70;1.50;;;19.40;60.40;;;;;;5093463;28;20058;-73
2022/05/27 01:31:05;;;;;;;3.97;1.70;;;18.50;61.10;;;;;;5101927;28;20054;-72
2022/05/27 01:33:37;;;;;;;3.72;1.50;;;19.80;60.50;;;;;;5107228;28;20055;-73
2022/05/27 01:36:09;;;;;;;2.83;1.52;;;19.70;56.90;;;;;;5107483;28;20056;-73
2022/05/27 01:38:38;;;;;;;2.75;1.50;;;18.60;60.00;;;;;;5107457;28;20133;-72
2022/05/27 01:41:08;;;;;;;3.55;1.60;;;18.90;60.00;;;;;;5107712;28;20050;-72
2022/05/27 01:43:39;;;;;;;1.58;1.27;;;19.90;59.40;;;;;;5107719;28;20694;-72
2022/05/27 01:46:09;;;;;;;3.42;1.50;;;19.80;60.70;;;;;;5105281;28;20391;-72
2022/05/27 01:48:39;;;;;;;3.95;1.83;;;19.70;56.90;;;;;;5087460;28;20048;-72
2022/05/27 01:51:08;;;;;;;4.68;1.60;;;19.20;60.50;;;;;;5088417;28;20052;-72
2022/05/27 01:53:37;;;;;;;3.88;1.70;;;19.40;57.20;;;;;;5087017;28;20411;-72
2022/05/27 01:56:07;;;;;;;4.15;1.60;;;19.70;56.90;;;;;;5087111;28;20056;-72
2022/05/27 01:58:36;;;;;;;3.63;1.58;;;19.50;60.60;;;;;;5088475;28;20051;-72
2022/05/27 02:01:03;;;;;;;3.17;1.60;;;19.60;60.30;;;;;;5088226;28;20059;-72
2022/05/27 02:03:33;;;;;;;2.58;1.40;;;19.80;60.70;;;;;;5106986;28;20054;-72
2022/05/27 02:06:02;;;;;;;3.08;1.40;;;19.60;60.90;;;;;;5107383;28;20055;-72
2022/05/27 02:08:32;;;;;;;3.75;1.83;;;19.40;60.50;;;;;;5107584;28;20115;-72
2022/05/27 02:11:01;;;;;;;4.10;1.40;;;19.60;60.40;;;;;;5107476;28;20066;-72
2022/05/27 02:13:30;;;;;;;2.78;1.50;;;19.60;56.90;;;;;;5104973;28;20052;-72
2022/05/27 02:15:57;;;;;;;2.67;1.42;;;19.50;61.40;;;;;;5086629;28;20186;-72
2022/05/27 02:18:26;;;;;;;3.47;1.55;;;19.20;60.20;;;;;;5087139;28;20143;-72
2022/05/27 02:20:55;;;;;;;2.78;1.40;;;19.00;61.40;;;;;;5087390;28;20044;-72
2022/05/27 02:23:24;;;;;;;3.53;1.50;;;19.50;60.70;;;;;;5090634;28;20058;-72
2022/05/27 02:25:50;;;;;;;3.78;1.58;;;19.70;60.70;;;;;;5091007;28;20080;-73
2022/05/27 02:28:19;;;;;;;2.72;1.48;;;19.60;56.90;;;;;;5100048;27;20043;-72
2022/05/27 02:30:50;;;;;;;2.10;1.45;;;18.80;59.60;;;;;;5113316;27;20074;-73
2022/05/27 02:36:05;;;;;;;3.20;1.40;;;19.40;60.80;;;;;;5111088;28;20519;-72
2022/05/27 02:38:31;;;;;;;3.95;1.30;;;19.50;61.00;;;;;;5111229;28;20049;-72
2022/05/27 02:41:01;;;;;;;3.15;1.50;;;19.40;60.20;;;;;;5110689;28;20220;-73
2022/05/27 02:43:34;;;;;;;2.47;1.48;;;19.50;56.90;;;;;;5110588;28;20051;-73
2022/05/27 02:46:04;;;;;;;3.53;1.52;;;19.60;61.30;;;;;;5110807;28;20096;-72
2022/05/27 02:48:32;;;;;;;4.30;1.60;;;19.30;60.30;;;;;;5095129;28;20060;-72
2022/05/27 02:51:04;;;;;;;4.05;1.60;;;20.70;61.50;;;;;;5089757;28;20048;-72
2022/05/27 02:53:36;;;;;;;3.17;1.63;;;19.00;60.10;;;;;;5090313;28;20383;-72
2022/05/27 02:56:06;;;;;;;2.33;1.30;;;19.50;60.80;;;;;;5090612;28;20059;-72
2022/05/27 02:58:33;;;;;;;2.95;1.40;;;19.90;61.10;;;;;;5090418;28;20059;-72
2022/05/27 03:01:00;;;;;;;2.10;1.40;;;19.50;57.00;;;;;;5089799;28;20425;-72
2022/05/27 03:03:26;;;;;;;3.22;1.60;;;19.50;57.00;;;;;;5107773;28;20062;-72
2022/05/27 03:05:59;;;;;;;2.85;1.40;;;19.60;61.00;;;;;;5090154;28;20139;-73
2022/05/27 03:08:28;;;;;;;3.42;1.30;;;19.50;57.00;;;;;;5091502;28;20052;-72
2022/05/27 03:11:03;;;;;;;2.75;1.40;;;19.40;61.10;;;;;;5089845;28;20079;-72
2022/05/27 03:13:45;;;;;;;3.30;1.40;;;20.20;61.30;;;;;;5089675;28;20060;-72
2022/05/27 03:16:16;;;;;;;3.00;1.60;;;19.30;61.00;;;;;;5090147;28;20409;-73
2022/05/27 03:19:01;;;;;;;2.40;1.30;;;19.40;60.10;;;;;;5089838;28;20060;-72
2022/05/27 03:21:31;;;;;;;2.38;1.23;;;19.50;60.70;;;;;;5090733;28;20055;-72
2022/05/27 03:24:07;;;;;;;2.60;1.40;;;19.40;56.90;;;;;;5089561;28;20062;-72
2022/05/27 03:26:40;;;;;;;3.53;1.48;;;19.20;61.20;;;;;;5090726;28;20055;-72
2022/05/27 03:29:11;;;;;;;2.67;1.33;;;19.40;57.00;;;;;;5114055;27;20050;-71
2022/05/27 03:31:39;;;;;;;2.50;1.30;;;19.30;61.10;;;;;;5130816;27;20043;-72
2022/05/27 03:34:08;;;;;;;2.65;1.30;;;19.40;60.60;;;;;;5129191;27;20051;-73
2022/05/27 03:36:37;;;;;;;1.73;1.17;;;19.40;57.00;;;;;;5130344;27;20437;-73
2022/05/27 03:39:08;;;;;;;2.28;1.27;;;19.40;57.00;;;;;;5115248;27;20134;-73
2022/05/27 03:41:37;;;;;;;2.45;1.20;;;18.20;60.10;;;;;;5109515;28;20058;-73
2022/05/27 03:44:04;;;;;;;3.75;1.60;;;19.40;57.00;;;;;;5109496;28;20589;-73
2022/05/27 03:46:32;;;;;;;2.15;1.40;;;19.50;61.90;;;;;;5109541;28;20048;-73
2022/05/27 03:48:59;;;;;;;3.33;1.60;;;19.10;60.90;;;;;;5110944;28;20717;-73
2022/05/27 03:51:27;;;;;;;2.63;1.50;;;19.40;57.00;;;;;;5109412;28;20145;-73
2022/05/27 03:54:06;;;;;;;2.65;1.30;;;18.40;59.60;;;;;;5109187;28;20073;-73
2022/05/27 03:56:33;;;;;;;3.47;1.40;;;19.20;60.80;;;;;;5089227;28;20078;-72
2022/05/27 03:59:01;;;;;;;3.00;1.42;;;19.10;61.00;;;;;;5088802;28;20051;-73
2022/05/27 04:01:30;;;;;;;2.22;1.42;;;19.40;57.00;;;;;;5091659;28;20383;-73
2022/05/27 04:03:57;;;;;;;3.08;1.20;;;19.20;60.10;;;;;;5108930;28;20051;-73
2022/05/27 04:06:23;;;;;;;2.67;1.42;;;19.30;57.00;;;;;;5103276;28;20043;-73
2022/05/27 04:08:50;;;;;;;2.75;1.40;;;19.30;61.20;;;;;;5099094;28;20055;-73
2022/05/27 04:11:17;;;;;;;3.50;1.67;;;19.30;61.00;;;;;;5095388;28;20040;-73
2022/05/27 04:13:44;;;;;;;2.38;1.35;;;18.90;59.70;;;;;;5099742;28;20051;-73
2022/05/27 04:16:12;;;;;;;1.40;1.00;;;20.40;60.70;;;;;;5098323;28;20062;-73
2022/05/27 04:18:38;;;;;;;2.63;1.38;;;19.40;57.00;;;;;;5098387;28;20047;-73
2022/05/27 04:21:05;;;;;;;2.95;1.60;;;19.00;60.10;;;;;;5093911;28;20105;-72
2022/05/27 04:23:32;;;;;;;2.75;1.50;;;19.40;57.00;;;;;;5088546;28;20063;-72
2022/05/27 04:25:58;;;;;;;2.90;1.50;;;19.40;57.00;;;;;;5088957;28;20054;-73
2022/05/27 04:28:25;;;;;;;3.90;1.48;;;19.40;57.00;;;;;;5094986;28;20043;-73
2022/05/27 04:30:52;;;;;;;3.28;1.30;;;19.40;57.00;;;;;;5099665;28;20052;-73
2022/05/27 04:33:21;;;;;;;2.60;1.50;;;19.40;57.00;;;;;;5097172;28;20047;-73
2022/05/27 04:35:47;;;;;;;5.45;1.50;;;19.40;57.00;;;;;;5096723;28;20078;-72
2022/05/27 04:38:14;;;;;;;2.58;1.50;;;19.40;57.00;;;;;;5098645;28;20409;-72
2022/05/27 04:40:41;;;;;;;3.05;1.40;;;19.30;61.40;;;;;;5096872;28;20457;-73
2022/05/27 04:43:08;;;;;;;3.35;1.45;;;19.50;60.80;;;;;;5098154;28;20055;-73
2022/05/27 04:45:35;;;;;;;3.30;1.50;;;19.40;61.30;;;;;;5097181;28;20047;-72
2022/05/27 04:48:01;;;;;;;2.55;1.23;;;19.40;57.00;;;;;;5099098;28;20047;-73
2022/05/27 04:50:30;;;;;;;3.97;1.45;;;19.30;61.30;;;;;;5097843;28;20399;-73
2022/05/27 04:52:57;;;;;;;3.42;1.35;;;19.80;61.90;;;;;;5097362;28;20061;-73
2022/05/27 04:55:23;;;;;;;5.00;1.30;;;19.40;56.90;;;;;;5098913;28;20047;-73
2022/05/27 04:57:51;;;;;;;3.17;1.50;;;19.40;56.90;;;;;;5097757;28;20044;-73
2022/05/27 05:00:19;;;;;;;1.98;1.20;;;19.40;56.90;;;;;;5096667;28;20048;-72
2022/05/27 05:02:46;;;;;;;3.05;1.40;;;19.40;61.20;;;;;;5094775;28;20056;-70
2022/05/27 05:05:14;;;;;;;4.05;1.50;;;19.40;56.90;;;;;;5088132;28;20066;-73
2022/05/27 05:07:42;;;;;;;3.80;1.30;;;19.30;61.40;;;;;;5088293;28;20048;-72
2022/05/27 05:10:10;;;;;;;2.80;1.20;;;19.50;61.40;;;;;;5088150;28;20063;-72
2022/05/27 05:12:36;;;;;;;2.72;1.50;;;19.40;56.80;;;;;;5095680;28;20052;-73
2022/05/27 05:15:03;;;;;;;2.92;1.27;;;19.50;60.10;;;;;;5102154;28;20127;-73
2022/05/27 05:17:30;;;;;;;3.28;1.40;;;18.70;60.40;;;;;;5107816;28;20052;-73
2022/05/27 05:19:57;;;;;;;2.65;1.20;;;18.70;59.80;;;;;;5106983;28;20054;-75
2022/05/27 05:22:24;;;;;;;3.70;1.30;;;19.40;56.70;;;;;;5110154;28;20059;-72
2022/05/27 05:24:53;;;;;;;3.58;1.55;;;19.50;56.80;;;;;;5108520;28;20054;-73
2022/05/27 05:27:20;;;;;;;3.70;1.73;;;19.50;56.70;;;;;;5108402;28;20135;-73
2022/05/27 05:29:47;;;;;;;4.07;1.40;;;19.40;56.60;;;;;;5108371;28;20655;-73
2022/05/27 05:32:14;;;;;;;4.15;1.48;;;19.50;56.60;;;;;;5108324;28;20048;-74
2022/05/27 05:34:40;;;;;;;6.10;1.92;;;19.50;56.60;;;;;;5090844;28;20052;-73
2022/05/27 05:37:07;;;;;;;3.13;1.50;;;19.40;56.50;;;;;;5091606;28;20463;-74
2022/05/27 05:39:36;;;;;;;4.72;2.15;;;19.30;60.60;;;;;;5087467;28;20059;-74
2022/05/27 05:42:06;;;;;;;2.85;1.30;;;20.70;62.30;;;;;;5087284;28;20051;-73
2022/05/27 05:44:33;;;;;;;6.70;2.00;;;19.30;60.90;;;;;;5087109;28;20455;-72
2022/05/27 05:46:59;;;;;;;4.72;1.70;;;18.40;60.00;;;;;;5088651;28;20044;-73
2022/05/27 05:49:26;;;;;;;3.10;1.45;;;19.50;56.60;;;;;;5087403;28;20048;-73
2022/05/27 05:51:54;;;;;;;4.40;1.52;;;19.70;60.80;;;;;;5088772;28;20131;-73
2022/05/27 05:54:21;;;;;;;3.05;1.55;;;20.50;61.10;;;;;;5086694;28;20044;-73
2022/05/27 05:56:48;;;;;;;6.05;1.70;;;19.70;61.00;;;;;;5097084;28;20049;-73
2022/05/27 05:59:16;;;;;;;5.80;1.50;;;19.50;56.60;;;;;;5099549;28;20059;-73
2022/05/27 06:01:43;;;;;;;3.47;1.55;;;19.50;60.40;;;;;;5096275;28;20040;-72
2022/05/27 06:04:10;;;;;;;4.10;1.50;;;19.60;56.50;;;;;;5101646;28;20382;-73
2022/05/27 06:06:36;;;;;;;5.05;1.73;;;20.40;60.20;;;;;;5100574;28;20048;-73
2022/05/27 06:09:03;;;;;;;3.53;1.55;;;19.70;56.30;;;;;;5101044;28;20052;-73
2022/05/27 06:11:30;;;;;;;4.85;1.58;;;19.80;56.10;;;;;;5099981;28;20047;-73
2022/05/27 06:13:57;;;;;;;3.78;1.60;;;20.00;56.10;;;;;;5100124;28;20052;-73
2022/05/27 06:16:25;;;;;;;3.90;1.40;;;20.00;55.90;;;;;;5100125;28;20048;-73
2022/05/27 06:18:52;;;;;;;6.43;1.88;;;20.10;60.50;;;;;;5102385;28;20047;-73
2022/05/27 06:21:19;;;;;;;5.07;1.80;;;20.10;60.50;;;;;;5100053;28;20044;-73
2022/05/27 06:23:46;;;;;;;9.52;1.80;;;19.80;57.90;;;;;;5099456;28;20051;-72
2022/05/27 06:26:13;;;;;;;4.32;1.63;;;20.10;55.60;;;;;;5099881;28;20055;-73
2022/05/27 06:34:24;;;;;;;3.33;1.42;;;20.40;59.70;;;;;;5099413;28;20092;-73
2022/05/27 06:36:51;;;;;;;5.05;2.17;;;20.40;59.70;;;;;;5101801;28;20048;-73
2022/05/27 06:39:18;;;;;;;4.05;1.40;;;20.40;55.10;;;;;;5097544;28;20058;-72
2022/05/27 06:41:45;;;;;;;2.65;1.30;;;20.50;54.90;;;;;;5093840;28;20047;-73
2022/05/27 06:44:12;;;;;;;5.78;1.60;;;20.60;54.70;;;;;;5104004;28;20650;-73
2022/05/27 06:46:40;;;;;;;4.53;1.77;;;21.30;58.70;;;;;;5107084;28;20051;-73
2022/05/27 06:49:07;;;;;;;5.68;1.40;;;21.80;59.40;;;;;;5095956;28;20048;-71
2022/05/27 06:51:35;;;;;;;3.45;1.55;;;21.70;60.00;;;;;;5091755;28;20055;-71
2022/05/27 06:54:02;;;;;;;3.45;1.60;;;20.00;57.80;;;;;;5110675;28;20051;-72
2022/05/27 06:56:28;;;;;;;4.57;1.58;;;20.90;59.00;;;;;;5111009;28;20112;-71
2022/05/27 06:58:55;;;;;;;5.07;1.50;;;21.00;59.20;;;;;;5110814;28;20062;-72
2022/05/27 07:01:22;;;;;;;4.50;1.38;;;21.20;58.20;;;;;;5099578;28;20044;-72
2022/05/27 07:03:50;;;;;;;5.07;2.20;;;21.10;56.60;;;;;;5111379;28;20052;-72
2022/05/27 07:06:16;;;;;;;4.28;1.40;;;21.20;53.80;;;;;;5110247;28;20043;-71
2022/05/27 07:08:43;;;;;;;5.15;1.58;;;21.30;53.70;;;;;;5109882;28;20044;-71
2022/05/27 07:11:10;;;;;;;3.80;1.58;;;21.50;53.70;;;;;;5108999;28;20050;-71
2022/05/27 07:13:37;;;;;;;3.33;1.42;;;21.70;56.40;;;;;;5092739;28;20135;-71
2022/05/27 07:16:06;;;;;;;3.33;1.52;;;21.70;53.50;;;;;;5091253;28;20149;-72
2022/05/27 07:18:32;;;;;;;2.90;1.48;;;21.90;57.40;;;;;;5090287;28;20091;-72
2022/05/27 07:21:01;;;;;;;3.53;1.42;;;21.90;53.30;;;;;;5099544;28;20040;-71
2022/05/27 07:23:28;;;;;;;3.53;1.40;;;21.90;53.80;;;;;;5110216;28;20051;-71
2022/05/27 07:25:55;;;;;;;4.95;1.70;;;20.90;57.50;;;;;;5108508;28;20055;-72
2022/05/27 07:28:22;;;;;;;4.30;1.80;;;22.10;53.10;;;;;;5113769;27;20412;-73
2022/05/27 07:30:48;;;;;;;4.75;1.50;;;22.20;53.10;;;;;;5100916;28;20055;-73
2022/05/27 07:33:15;;;;;;;2.90;1.30;;;22.40;57.50;;;;;;5104142;28;20051;-72
2022/05/27 07:35:42;;;;;;;2.78;1.30;;;22.20;52.90;;;;;;5109959;28;20057;-72
2022/05/27 07:38:10;;;;;;;4.07;1.50;;;22.40;58.00;;;;;;5110377;28;20043;-73
2022/05/27 07:40:37;;;;;;;2.70;1.42;;;22.30;52.90;;;;;;5111324;28;20079;-72
2022/05/27 07:43:03;;;;;;;2.20;1.35;;;22.40;57.70;;;;;;5108356;28;20490;-72
2022/05/27 07:45:31;;;;;;;3.53;1.45;;;22.50;52.90;;;;;;5089928;28;20060;-72
2022/05/27 07:47:57;;;;;;;5.10;1.52;;;22.10;57.10;;;;;;5097030;28;20143;-72
2022/05/27 07:50:24;;;;;;;6.45;1.60;;;22.60;52.80;;;;;;5091827;28;20466;-73
2022/05/27 07:52:51;;;;;;;4.63;1.70;;;22.60;52.70;;;;;;5087265;28;20123;-73
2022/05/27 07:55:20;;;;;;;4.43;1.80;;;22.80;57.40;;;;;;5090559;28;20142;-73
2022/05/27 07:57:48;;;;;;;5.00;1.70;;;22.70;52.70;;;;;;5090011;28;20051;-73
2022/05/27 08:00:16;;;;;;;3.65;1.40;;;22.80;56.60;;;;;;5089682;28;20087;-72
2022/05/27 08:02:43;;;;;;;3.78;1.83;;;22.80;52.60;;;;;;5108460;28;20419;-73
2022/05/27 08:05:10;;;;;;;7.18;1.75;;;23.10;56.00;;;;;;5109252;28;20055;-73
2022/05/27 08:07:37;;;;;;;6.70;2.05;;;22.90;52.50;;;;;;5109893;28;20051;-73
2022/05/27 08:10:04;;;;;;;7.07;2.25;;;22.90;52.50;;;;;;5109291;28;20055;-73
2022/05/27 08:12:32;;;;;;;5.40;1.80;;;22.90;52.50;;;;;;5109274;28;20096;-73
2022/05/27 08:14:59;;;;;;;5.45;1.95;;;23.00;52.50;;;;;;5109022;28;20058;-73
2022/05/27 08:17:26;;;;;;;6.93;1.90;;;22.90;52.40;;;;;;5108671;28;20055;-73
2022/05/27 08:19:53;;;;;;;7.22;2.03;;;22.90;56.50;;;;;;5108268;28;20083;-74
2022/05/27 08:22:19;;;;;;;7.55;2.00;;;23.00;56.00;;;;;;5108304;28;20581;-73
2022/05/27 08:24:46;;;;;;;5.35;2.00;;;22.90;56.10;;;;;;5108935;28;20055;-73
2022/05/27 08:27:13;;;;;;;6.03;2.20;;;23.20;57.30;;;;;;5109085;28;20509;-73
2022/05/27 08:29:41;;;;;;;4.25;2.13;;;23.10;52.40;;;;;;5109037;28;20069;-74
2022/05/27 08:32:08;;;;;;;4.35;2.03;;;23.00;57.40;;;;;;5109203;28;20048;-73
2022/05/27 08:40:04;;;;;;;6.25;2.15;;;23.00;55.90;;;;;;5088512;28;20047;-73
2022/05/27 08:42:34;;;;;;;6.47;2.15;;;23.10;52.30;;;;;;5088293;28;20051;-72
2022/05/27 08:45:07;;;;;;;5.35;1.92;;;23.30;56.60;;;;;;5087963;28;20056;-71
2022/05/27 08:47:37;;;;;;;8.05;1.92;;;23.10;56.60;;;;;;5090485;28;20137;-69
2022/05/27 08:50:09;;;;;;;4.57;2.03;;;23.10;52.10;;;;;;5103364;28;20047;-71
2022/05/27 08:52:39;;;;;;;5.20;1.77;;;23.20;56.30;;;;;;5116941;27;20047;-71
2022/05/27 08:59:26;;;;;;;6.50;2.10;;;23.20;56.00;;;;;;5104000;27;20064;-70
2022/05/27 09:00:40;;;;;;;5.13;1.73;;;22.10;55.10;;;;;;5096522;28;20485;-71
2022/05/27 09:03:07;;;;;;;5.85;1.75;;;23.10;51.90;;;;;;5107304;28;20074;-71
2022/05/27 09:05:36;;;;;;;5.05;2.10;;;23.10;51.90;;;;;;5108103;28;20683;-71
2022/05/27 09:08:05;;;;;;;5.22;1.70;;;23.10;51.90;;;;;;5108158;28;20062;-71
2022/05/27 09:10:50;;;;;;;6.32;1.98;;;22.90;56.00;;;;;;5107535;28;20059;-71
2022/05/27 09:13:20;;;;;;;5.80;2.30;;;23.00;51.90;;;;;;5102958;28;20047;-71
2022/05/27 09:18:35;;;;;;;5.45;2.15;;;23.00;51.50;;;;;;5108894;28;20105;-71
2022/05/27 09:21:11;;;;;;;4.43;1.85;;;23.10;55.60;;;;;;5108411;28;20047;-71
2022/05/27 09:24:04;;;;;;;6.43;2.00;;;22.80;53.80;;;;;;5107222;28;20043;-72
2022/05/27 09:26:34;;;;;;;5.45;1.80;;;23.00;51.60;;;;;;5065888;28;20057;-71
2022/05/27 09:29:04;;;;;;;4.32;1.98;;;22.90;54.80;;;;;;5117972;27;20134;-71
2022/05/27 09:31:35;;;;;;;6.25;2.25;;;23.00;55.10;;;;;;5126182;27;20051;-71
2022/05/27 09:34:02;;;;;;;4.82;1.90;;;22.40;55.40;;;;;;5088003;28;20052;-71
2022/05/27 09:36:34;;;;;;;4.25;1.67;;;23.00;51.50;;;;;;5087202;28;20052;-71
2022/05/27 09:39:01;;;;;;;5.20;2.00;;;23.00;51.50;;;;;;5087406;28;20052;-71
2022/05/27 09:41:34;;;;;;;5.20;2.30;;;22.80;55.20;;;;;;5088257;28;20048;-71
2022/05/27 09:44:10;;;;;;;3.53;1.50;;;22.40;55.30;;;;;;5087142;28;20131;-72
2022/05/27 09:46:38;;;;;;;5.80;2.08;;;22.90;54.40;;;;;;5094649;28;20485;-71
2022/05/27 09:49:06;;;;;;;5.93;1.95;;;22.80;54.50;;;;;;5108392;28;20052;-72
2022/05/27 09:51:33;;;;;;;4.68;1.92;;;22.90;50.50;;;;;;5107854;28;20134;-72
2022/05/27 09:54:04;;;;;;;5.57;2.30;;;22.90;50.50;;;;;;5107481;28;20058;-71
2022/05/27 09:56:37;;;;;;;8.82;1.90;;;23.40;54.20;;;;;;5107844;28;20409;-72
2022/05/27 09:59:18;;;;;;;5.60;2.05;;;23.40;54.10;;;;;;5105136;28;20051;-70
2022/05/27 10:01:46;;;;;;;5.93;1.80;;;22.80;50.10;;;;;;5095084;28;20062;-72
2022/05/27 10:04:14;;;;;;;7.22;2.22;;;23.90;54.30;;;;;;5093090;28;20386;-72
2022/05/27 10:06:40;;;;;;;7.95;2.10;;;22.70;50.10;;;;;;5105902;28;20070;-71
2022/05/27 10:09:08;;;;;;;5.70;1.60;;;22.60;50.20;;;;;;5107029;28;20050;-72
2022/05/27 10:11:35;;;;;;;6.50;2.33;;;22.60;50.30;;;;;;5106853;28;20058;-72
2022/05/27 10:14:11;;;;;;;4.90;1.85;;;22.40;53.80;;;;;;5105767;28;20115;-72
2022/05/27 10:16:38;;;;;;;7.13;2.30;;;22.60;50.40;;;;;;5106356;28;20052;-72
2022/05/27 10:19:10;;;;;;;6.78;2.30;;;22.50;50.40;;;;;;5107536;28;20051;-71
2022/05/27 10:21:50;;;;;;;3.15;1.85;;;22.80;54.60;;;;;;5107536;28;20095;-72
2022/05/27 10:24:18;;;;;;;4.32;1.83;;;22.00;53.90;;;;;;5095549;28;20063;-72
2022/05/27 10:26:45;;;;;;;5.97;1.75;;;22.50;50.70;;;;;;5087191;28;20052;-71
2022/05/27 10:29:13;;;;;;;4.60;1.73;;;22.40;50.60;;;;;;5098647;28;20421;-72
2022/05/27 10:31:49;;;;;;;6.20;2.25;;;22.40;50.70;;;;;;5107112;28;20056;-72
2022/05/27 10:34:39;;;;;;;5.35;1.88;;;22.30;50.60;;;;;;5108274;28;20543;-72
2022/05/27 10:37:06;;;;;;;6.78;1.83;;;22.30;50.80;;;;;;5107278;28;20065;-72
2022/05/27 10:39:37;;;;;;;3.30;1.38;;;23.10;54.80;;;;;;5106686;28;20615;-72
2022/05/27 10:42:21;;;;;;;5.10;2.20;;;22.30;50.90;;;;;;5108191;28;20047;-72
2022/05/27 10:44:58;;;;;;;4.07;1.70;;;22.30;50.90;;;;;;5108723;28;20139;-72
2022/05/27 10:47:42;;;;;;;6.47;2.25;;;22.30;50.90;;;;;;5111211;28;20134;-72
2022/05/27 10:50:15;;;;;;;8.43;2.03;;;22.00;54.60;;;;;;5110551;28;20058;-72
2022/05/27 10:53:08;;;;;;;5.45;2.25;;;22.20;50.90;;;;;;5110403;28;20417;-73
2022/05/27 10:55:38;;;;;;;4.97;1.60;;;22.20;50.90;;;;;;5097425;28;20343;-73
2022/05/27 11:03:54;;;;;;;4.43;1.77;;;22.20;52.80;;;;;;5089759;28;20048;-72
2022/05/27 11:06:28;;;;;;;3.40;1.60;;;22.20;55.20;;;;;;5102534;28;20121;-72
2022/05/27 11:09:02;;;;;;;3.45;1.65;;;22.20;51.00;;;;;;5110358;28;20044;-72
2022/05/27 11:11:32;;;;;;;4.20;1.65;;;22.20;51.00;;;;;;5109385;28;20486;-72
2022/05/27 11:16:54;;;;;;;4.68;1.85;;;22.10;55.70;;;;;;5089851;28;20052;-72
2022/05/27 11:19:33;;;;;;;5.43;1.80;;;22.10;51.00;;;;;;5090237;28;20047;-72
2022/05/27 11:22:10;;;;;;;5.10;1.98;;;22.10;51.00;;;;;;5089745;28;20055;-72
2022/05/27 11:24:50;;;;;;;3.90;1.45;;;22.10;51.00;;;;;;5090717;28;20690;-72
2022/05/27 11:27:24;;;;;;;5.05;1.65;;;22.10;54.80;;;;;;5089238;28;20180;-72
2022/05/27 11:30:12;;;;;;;2.53;1.42;;;22.00;54.70;;;;;;5108879;28;20061;-71
2022/05/27 11:33:07;;;;;;;4.05;1.60;;;22.10;51.00;;;;;;5107479;28;20573;-72
2022/05/27 11:35:42;;;;;;;5.03;1.70;;;21.90;54.20;;;;;;5105491;28;20058;-71
2022/05/27 11:38:19;;;;;;;3.75;1.52;;;22.00;51.10;;;;;;5109984;28;20055;-71
2022/05/27 11:40:49;;;;;;;4.68;1.80;;;21.80;54.60;;;;;;5109835;28;20054;-71
2022/05/27 11:43:28;;;;;;;4.25;1.60;;;22.00;51.10;;;;;;5109546;28;20051;-71
2022/05/27 11:46:06;;;;;;;2.97;1.50;;;22.00;51.10;;;;;;5109064;28;20138;-71
2022/05/27 11:48:36;;;;;;;4.30;1.52;;;22.00;55.80;;;;;;5111033;28;20054;-71
2022/05/27 11:51:39;;;;;;;4.38;1.67;;;22.70;54.70;;;;;;5109727;28;20060;-71
2022/05/27 11:54:27;;;;;;;4.55;1.80;;;22.00;51.20;;;;;;5066736;28;20535;-72
2022/05/27 11:57:01;;;;;;;5.50;1.70;;;21.90;51.30;;;;;;5107422;28;20576;-71
2022/05/27 11:59:31;;;;;;;4.82;1.95;;;20.60;54.60;;;;;;5109563;28;20063;-70
2022/05/27 12:01:58;;;;;;;4.28;1.40;;;21.90;51.30;;;;;;5107983;28;20061;-71
2022/05/27 12:04:31;;;;;;;4.78;1.52;;;22.70;55.70;;;;;;5108512;28;20051;-70
2022/05/27 12:07:01;;;;;;;5.40;1.92;;;21.90;51.30;;;;;;5110355;28;20044;-70
2022/05/27 12:09:31;;;;;;;8.25;1.60;;;21.70;54.70;;;;;;5109285;28;20066;-70
2022/05/27 12:11:59;;;;;;;7.03;2.10;;;21.90;50.70;;;;;;5109019;28;20090;-72
2022/05/27 12:14:29;;;;;;;4.13;1.60;;;22.00;54.70;;;;;;5109990;28;20552;-72
2022/05/27 12:16:56;;;;;;;4.75;1.60;;;21.90;50.90;;;;;;5095888;28;20425;-71
2022/05/27 12:26:46;;;;;;;7.80;1.90;;;21.80;50.80;;;;;;5101657;27;20034;-70
2022/05/27 12:29:13;;;;;;;7.72;2.22;;;20.60;54.10;;;;;;5114104;27;20055;-72
2022/05/27 12:31:40;;;;;;;4.72;2.00;;;22.00;54.40;;;;;;5110338;28;20463;-70
2022/05/27 12:34:35;;;;;;;6.63;1.80;;;21.80;50.70;;;;;;5109517;28;20583;-69
2022/05/27 12:37:02;;;;;;;9.35;1.90;;;21.80;50.60;;;;;;5109012;28;20082;-70
2022/05/27 12:39:29;;;;;;;5.60;1.88;;;21.70;54.70;;;;;;5100787;28;20044;-71
2022/05/27 12:42:10;;;;;;;6.10;1.67;;;21.80;54.20;;;;;;5089185;28;20058;-70
2022/05/27 12:44:37;;;;;;;3.88;1.45;;;21.40;54.40;;;;;;5087876;28;20058;-70
2022/05/27 12:47:04;;;;;;;4.28;1.80;;;22.10;53.90;;;;;;5088345;28;20056;-69
2022/05/27 12:49:35;;;;;;;5.93;2.15;;;21.90;50.60;;;;;;5096940;28;20660;-69
2022/05/27 12:52:02;;;;;;;4.88;1.80;;;21.90;50.50;;;;;;5108122;28;20086;-70
2022/05/27 12:55:04;;;;;;;6.75;1.80;;;21.80;53.80;;;;;;5109564;28;20061;-70
2022/05/27 13:03:48;;;;;;;5.60;1.98;;;21.80;50.60;;;;;;5106810;28;20051;-70
2022/05/27 13:06:17;;;;;;;7.28;1.95;;;23.10;54.50;;;;;;5108152;28;20379;-71
2022/05/27 13:08:46;;;;;;;6.15;1.77;;;21.80;50.60;;;;;;5107383;28;20085;-70
2022/05/27 13:11:15;;;;;;;6.57;1.80;;;21.80;50.50;;;;;;5107692;28;20134;-70
2022/05/27 13:13:43;;;;;;;6.35;1.85;;;21.90;52.30;;;;;;5107815;28;20051;-71
2022/05/27 13:16:11;;;;;;;5.78;1.77;;;21.80;50.50;;;;;;5109141;28;20044;-70
2022/05/27 13:18:42;;;;;;;4.95;1.80;;;21.80;50.50;;;;;;5106777;28;20104;-69
2022/05/27 13:21:12;;;;;;;3.47;1.70;;;22.70;51.10;;;;;;5088181;28;20060;-70
2022/05/27 13:23:51;;;;;;;6.47;2.20;;;21.50;52.10;;;;;;5088490;28;20048;-70
2022/05/27 13:26:20;;;;;;;5.38;1.70;;;21.80;50.50;;;;;;5088476;28;20070;-70
2022/05/27 13:28:52;;;;;;;3.70;1.67;;;21.80;50.50;;;;;;5095399;28;20054;-70
2022/05/27 13:31:21;;;;;;;5.93;1.85;;;22.80;55.20;;;;;;5108197;28;20047;-70
2022/05/27 13:33:50;;;;;;;6.18;1.42;;;21.40;52.80;;;;;;5107792;28;20532;-70
2022/05/27 13:36:19;;;;;;;5.00;2.03;;;21.70;54.40;;;;;;5108317;28;20059;-71
2022/05/27 13:38:48;;;;;;;3.38;1.60;;;21.80;54.60;;;;;;5107903;28;20168;-70
2022/05/27 13:41:17;;;;;;;4.90;1.95;;;21.70;50.50;;;;;;5094188;28;20565;-73
2022/05/27 13:43:47;;;;;;;4.97;2.00;;;21.50;52.10;;;;;;5108866;28;20075;-71